Time;durP1;ratioP1;P1;durP2;ratioP2;P2;SDS_P1;SDS_P2;PMS_P1;PMS_P2;Temp;Humidity;BMP_temperature;BMP_pressure;BME280_temperature;BME280_humidity;BME280_pressure;Samples;Min_cycle;Max_cycle;Signal;HPM_P1;HPM_P2
2020/12/12 00:01:36;;;;;;;75.30;41.17;;;;;;;;;;4983244;28;21008;-65
2020/12/12 00:04:02;;;;;;;76.93;39.43;;;;;;;;;;4983147;28;20893;-65
2020/12/12 00:06:27;;;;;;;81.43;40.23;;;;;;;;;;4982623;28;20220;-64
2020/12/12 00:08:52;;;;;;;73.77;38.10;;;;;;;;;;4983185;28;20194;-65
2020/12/12 00:11:21;;;;;;;73.40;37.33;;;;;;;;;;4983278;28;20194;-64
2020/12/12 00:13:46;;;;;;;73.80;36.00;;;;;;;;;;4981560;28;20767;-64
2020/12/12 00:16:14;;;;;;;74.73;39.30;;;;;;;;;;4982486;28;20301;-64
2020/12/12 00:18:39;;;;;;;74.07;36.93;;;;;;;;;;4983290;28;20200;-64
2020/12/12 00:21:04;;;;;;;74.37;39.30;;;;;;;;;;4981068;28;21082;-64
2020/12/12 00:23:30;;;;;;;79.50;37.07;;;;;;;;;;4983172;28;20292;-65
2020/12/12 00:25:55;;;;;;;75.90;36.57;;;;;;;;;;4982849;28;20240;-64
2020/12/12 00:28:20;;;;;;;77.53;38.13;;;;;;;;;;4982635;28;20197;-65
2020/12/12 00:30:46;;;;;;;74.03;37.57;;;;;;;;;;4982321;28;20820;-64
2020/12/12 00:33:11;;;;;;;74.07;37.63;;;;;;;;;;4981320;28;20207;-64
2020/12/12 00:35:36;;;;;;;81.43;40.33;;;;;;;;;;4976798;28;20223;-64
2020/12/12 00:38:02;;;;;;;78.53;40.47;;;;;;;;;;4981206;28;20251;-64
2020/12/12 00:40:27;;;;;;;78.87;39.97;;;;;;;;;;4981254;28;20632;-65
2020/12/12 00:42:52;;;;;;;75.67;37.80;;;;;;;;;;4975846;28;20197;-65
2020/12/12 00:45:17;;;;;;;81.80;40.40;;;;;;;;;;4975842;28;20264;-64
2020/12/12 00:47:43;;;;;;;76.23;37.30;;;;;;;;;;4997894;28;20689;-65
2020/12/12 00:50:08;;;;;;;77.17;40.53;;;;;;;;;;4982040;28;20726;-64
2020/12/12 00:52:33;;;;;;;76.53;40.20;;;;;;;;;;4990490;28;20189;-64
2020/12/12 00:54:59;;;;;;;82.97;42.20;;;;;;;;;;4997084;28;20193;-65
2020/12/12 00:57:25;;;;;;;77.83;42.23;;;;;;;;;;4996829;28;20290;-64
2020/12/12 00:59:50;;;;;;;82.97;43.13;;;;;;;;;;4982685;28;20209;-64
2020/12/12 01:02:16;;;;;;;81.30;41.77;;;;;;;;;;4980377;28;20219;-64
2020/12/12 01:04:41;;;;;;;79.60;40.87;;;;;;;;;;4982407;28;20815;-64
2020/12/12 01:07:06;;;;;;;84.50;41.40;;;;;;;;;;4981246;28;20322;-65
2020/12/12 01:09:31;;;;;;;80.63;41.37;;;;;;;;;;4982311;28;20182;-64
2020/12/12 01:11:57;;;;;;;80.87;41.20;;;;;;;;;;4980714;28;20672;-64
2020/12/12 01:14:22;;;;;;;78.40;41.13;;;;;;;;;;4974680;28;20186;-64
2020/12/12 01:16:48;;;;;;;79.53;42.00;;;;;;;;;;4981305;28;20910;-64
2020/12/12 01:19:13;;;;;;;75.97;40.53;;;;;;;;;;4981520;28;20918;-65
2020/12/12 01:21:38;;;;;;;78.37;40.73;;;;;;;;;;4980664;28;20257;-64
2020/12/12 01:24:05;;;;;;;82.80;41.33;;;;;;;;;;4980184;28;20180;-64
2020/12/12 01:26:31;;;;;;;80.03;41.73;;;;;;;;;;4981601;28;20209;-64
2020/12/12 01:28:56;;;;;;;84.23;43.00;;;;;;;;;;4982066;28;20182;-64
2020/12/12 01:31:21;;;;;;;84.00;41.63;;;;;;;;;;4976266;28;20725;-64
2020/12/12 01:33:47;;;;;;;78.67;42.67;;;;;;;;;;4974332;28;20188;-64
2020/12/12 01:36:12;;;;;;;81.50;42.50;;;;;;;;;;4982088;28;20203;-64
2020/12/12 01:38:37;;;;;;;81.03;41.30;;;;;;;;;;4982767;28;20270;-64
2020/12/12 01:41:03;;;;;;;82.27;41.03;;;;;;;;;;4980415;28;20262;-64
2020/12/12 01:43:28;;;;;;;80.00;41.63;;;;;;;;;;4972324;28;20461;-64
2020/12/12 01:45:53;;;;;;;80.67;41.53;;;;;;;;;;4981911;28;20245;-64
2020/12/12 01:48:19;;;;;;;87.67;44.07;;;;;;;;;;4982045;28;20185;-64
2020/12/12 01:50:45;;;;;;;75.17;41.57;;;;;;;;;;4979753;28;20196;-64
2020/12/12 01:53:11;;;;;;;79.67;40.87;;;;;;;;;;4980514;28;20205;-64
2020/12/12 01:55:37;;;;;;;82.93;42.93;;;;;;;;;;4980854;28;20223;-64
2020/12/12 01:58:02;;;;;;;78.57;41.00;;;;;;;;;;4980584;28;20193;-65
2020/12/12 02:00:28;;;;;;;77.30;40.60;;;;;;;;;;4979794;28;20197;-64
2020/12/12 02:02:54;;;;;;;81.73;42.70;;;;;;;;;;4973589;28;20189;-64
2020/12/12 02:05:39;;;;;;;81.40;39.73;;;;;;;;;;4979695;28;20198;-65
2020/12/12 02:08:14;;;;;;;85.53;41.20;;;;;;;;;;4980606;28;20864;-64
2020/12/12 02:10:41;;;;;;;80.37;40.90;;;;;;;;;;4974257;28;20246;-64
2020/12/12 02:13:07;;;;;;;81.73;43.73;;;;;;;;;;4980445;28;20281;-64
2020/12/12 02:15:33;;;;;;;82.73;43.37;;;;;;;;;;4981193;28;20192;-65
2020/12/12 02:17:58;;;;;;;79.50;40.80;;;;;;;;;;4981599;28;20204;-64
2020/12/12 02:20:23;;;;;;;85.50;42.60;;;;;;;;;;4981391;28;20186;-64
2020/12/12 02:22:49;;;;;;;80.93;40.17;;;;;;;;;;4996426;28;20185;-64
2020/12/12 02:25:14;;;;;;;87.10;41.00;;;;;;;;;;4978859;28;20194;-64
2020/12/12 02:27:40;;;;;;;81.53;40.73;;;;;;;;;;4980090;28;20181;-64
2020/12/12 02:30:06;;;;;;;89.17;41.50;;;;;;;;;;4981803;28;20263;-64
2020/12/12 02:32:31;;;;;;;82.60;40.43;;;;;;;;;;4981470;28;20189;-65
2020/12/12 02:34:57;;;;;;;79.43;42.03;;;;;;;;;;4979271;28;20608;-64
2020/12/12 02:37:22;;;;;;;79.93;42.27;;;;;;;;;;4981362;28;20219;-64
2020/12/12 02:39:47;;;;;;;87.03;42.80;;;;;;;;;;4981362;28;20539;-65
2020/12/12 02:42:12;;;;;;;78.20;38.47;;;;;;;;;;4980862;28;20214;-64
2020/12/12 02:44:38;;;;;;;86.27;41.70;;;;;;;;;;4981155;28;20188;-64
2020/12/12 02:47:03;;;;;;;82.63;40.63;;;;;;;;;;4980535;28;20214;-64
2020/12/12 02:49:28;;;;;;;79.30;40.03;;;;;;;;;;4996041;28;20687;-65
2020/12/12 02:51:54;;;;;;;79.13;40.00;;;;;;;;;;4981497;28;20564;-64
2020/12/12 02:54:19;;;;;;;77.53;42.00;;;;;;;;;;4982813;28;20205;-64
2020/12/12 02:56:44;;;;;;;81.60;40.87;;;;;;;;;;4978309;28;20213;-65
2020/12/12 02:59:10;;;;;;;85.47;42.13;;;;;;;;;;4978864;28;20246;-64
2020/12/12 03:01:38;;;;;;;84.23;40.33;;;;;;;;;;4985263;28;20210;-64
2020/12/12 03:04:03;;;;;;;72.70;38.20;;;;;;;;;;4984357;28;20827;-64
2020/12/12 03:06:28;;;;;;;81.33;40.40;;;;;;;;;;4985107;28;20223;-64
2020/12/12 03:08:54;;;;;;;73.30;38.93;;;;;;;;;;4985364;28;20200;-64
2020/12/12 03:11:19;;;;;;;75.57;39.57;;;;;;;;;;4984679;28;20187;-64
2020/12/12 03:13:44;;;;;;;81.33;40.37;;;;;;;;;;4984996;28;20203;-67
2020/12/12 03:16:10;;;;;;;79.60;40.33;;;;;;;;;;4999301;28;20208;-64
2020/12/12 03:18:35;;;;;;;82.83;42.23;;;;;;;;;;4984774;28;20271;-64
2020/12/12 03:21:00;;;;;;;77.57;42.30;;;;;;;;;;4983803;28;20247;-64
2020/12/12 03:23:25;;;;;;;81.33;40.87;;;;;;;;;;4983127;28;20189;-64
2020/12/12 03:25:51;;;;;;;79.33;40.43;;;;;;;;;;4983956;28;20266;-63
2020/12/12 03:28:16;;;;;;;76.70;42.50;;;;;;;;;;4984868;28;20908;-65
2020/12/12 03:30:41;;;;;;;75.20;40.20;;;;;;;;;;4999370;28;20282;-64
2020/12/12 03:33:07;;;;;;;78.27;40.23;;;;;;;;;;4983702;28;20215;-64
2020/12/12 03:35:32;;;;;;;73.60;38.83;;;;;;;;;;4984010;28;20195;-65
2020/12/12 03:37:58;;;;;;;75.60;39.77;;;;;;;;;;4990504;28;20332;-65
2020/12/12 03:40:24;;;;;;;73.93;40.07;;;;;;;;;;4984150;28;20193;-64
2020/12/12 03:42:50;;;;;;;70.70;37.50;;;;;;;;;;4984318;28;20623;-64
2020/12/12 03:45:15;;;;;;;71.13;38.93;;;;;;;;;;4983211;28;20214;-64
2020/12/12 03:47:40;;;;;;;72.17;38.23;;;;;;;;;;4983681;28;20219;-64
2020/12/12 03:50:05;;;;;;;75.87;40.73;;;;;;;;;;4984069;28;20224;-64
2020/12/12 03:52:31;;;;;;;71.13;37.70;;;;;;;;;;4998756;28;21028;-64
2020/12/12 03:54:56;;;;;;;72.07;38.13;;;;;;;;;;4976793;28;20191;-64
2020/12/12 03:57:21;;;;;;;71.47;36.10;;;;;;;;;;4983943;28;20207;-64
2020/12/12 03:59:47;;;;;;;67.53;36.80;;;;;;;;;;4997389;28;20182;-64
2020/12/12 04:02:12;;;;;;;68.80;34.73;;;;;;;;;;4983917;28;20216;-64
2020/12/12 04:04:37;;;;;;;73.67;36.70;;;;;;;;;;4982882;28;20194;-64
2020/12/12 04:07:03;;;;;;;74.57;38.97;;;;;;;;;;4983403;28;20204;-64
2020/12/12 04:09:28;;;;;;;71.27;37.97;;;;;;;;;;4971060;28;20267;-64
2020/12/12 04:11:53;;;;;;;69.53;36.83;;;;;;;;;;4976603;28;20219;-64
2020/12/12 04:14:18;;;;;;;72.60;39.53;;;;;;;;;;4983414;28;20184;-64
2020/12/12 04:16:44;;;;;;;72.57;37.30;;;;;;;;;;4983220;28;20226;-64
2020/12/12 04:19:09;;;;;;;66.73;36.63;;;;;;;;;;4983152;28;20211;-64
2020/12/12 04:21:34;;;;;;;67.50;36.43;;;;;;;;;;4983712;28;20234;-64
2020/12/12 04:24:00;;;;;;;73.10;36.50;;;;;;;;;;4983281;28;20194;-64
2020/12/12 04:26:25;;;;;;;62.90;36.63;;;;;;;;;;4981040;28;20329;-64
2020/12/12 04:28:50;;;;;;;63.03;33.97;;;;;;;;;;4983151;28;20219;-64
2020/12/12 04:31:15;;;;;;;64.00;34.00;;;;;;;;;;4982649;28;20208;-64
2020/12/12 04:33:41;;;;;;;70.47;34.80;;;;;;;;;;4982585;28;20192;-64
2020/12/12 04:36:06;;;;;;;63.00;34.07;;;;;;;;;;4981064;28;20222;-65
2020/12/12 04:38:35;;;;;;;67.70;35.07;;;;;;;;;;4997928;28;20253;-64
2020/12/12 04:41:01;;;;;;;65.80;36.20;;;;;;;;;;4982837;28;20239;-64
2020/12/12 04:43:26;;;;;;;63.17;33.73;;;;;;;;;;4983319;28;20556;-64
2020/12/12 04:45:52;;;;;;;61.83;34.50;;;;;;;;;;4982735;28;20221;-64
2020/12/12 04:48:18;;;;;;;63.77;34.83;;;;;;;;;;4976038;28;20202;-64
2020/12/12 04:50:43;;;;;;;64.07;33.60;;;;;;;;;;4983208;28;20188;-64
2020/12/12 04:53:13;;;;;;;58.43;32.37;;;;;;;;;;4982904;28;20837;-64
2020/12/12 04:55:43;;;;;;;58.80;32.17;;;;;;;;;;4980639;28;20217;-64
2020/12/12 04:58:12;;;;;;;64.03;33.27;;;;;;;;;;4982518;28;20530;-64
2020/12/12 05:00:38;;;;;;;57.67;31.87;;;;;;;;;;4982622;28;20186;-64
2020/12/12 05:03:04;;;;;;;59.57;30.57;;;;;;;;;;4981764;28;20190;-64
2020/12/12 05:05:29;;;;;;;61.80;32.00;;;;;;;;;;4982069;28;20214;-64
2020/12/12 05:07:54;;;;;;;57.07;31.93;;;;;;;;;;4980209;28;20856;-64
2020/12/12 05:10:19;;;;;;;60.43;33.13;;;;;;;;;;4980220;28;20187;-65
2020/12/12 05:12:45;;;;;;;60.57;32.33;;;;;;;;;;4981591;28;20208;-64
2020/12/12 05:15:10;;;;;;;59.63;31.93;;;;;;;;;;4974836;28;20234;-64
2020/12/12 05:17:35;;;;;;;57.37;32.50;;;;;;;;;;4981103;28;21037;-64
2020/12/12 05:20:01;;;;;;;55.63;31.07;;;;;;;;;;4981815;28;20190;-64
2020/12/12 05:22:26;;;;;;;57.33;31.57;;;;;;;;;;4981296;28;20220;-65
2020/12/12 05:24:52;;;;;;;53.97;30.47;;;;;;;;;;4981232;28;20334;-64
2020/12/12 05:27:17;;;;;;;59.47;32.03;;;;;;;;;;4979209;28;20209;-64
2020/12/12 05:29:43;;;;;;;60.23;31.73;;;;;;;;;;4981836;28;20556;-64
2020/12/12 05:32:08;;;;;;;56.43;30.83;;;;;;;;;;4981185;28;20202;-64
2020/12/12 05:34:34;;;;;;;58.20;31.17;;;;;;;;;;4981484;28;21006;-64
2020/12/12 05:36:59;;;;;;;52.13;31.43;;;;;;;;;;4970972;28;20212;-64
2020/12/12 05:39:24;;;;;;;57.87;31.23;;;;;;;;;;4980810;28;20341;-64
2020/12/12 05:41:50;;;;;;;54.93;30.07;;;;;;;;;;4981336;28;20216;-64
2020/12/12 05:44:16;;;;;;;57.63;31.60;;;;;;;;;;4981081;28;20197;-65
2020/12/12 05:46:42;;;;;;;53.67;29.73;;;;;;;;;;4981050;28;20303;-64
2020/12/12 05:49:07;;;;;;;55.50;30.30;;;;;;;;;;4981922;28;20253;-64
2020/12/12 05:51:33;;;;;;;52.87;29.97;;;;;;;;;;4977157;28;20198;-63
2020/12/12 05:53:59;;;;;;;54.07;31.90;;;;;;;;;;4982875;28;20224;-63
2020/12/12 05:56:24;;;;;;;58.20;29.63;;;;;;;;;;4982345;28;20289;-66
2020/12/12 05:58:50;;;;;;;52.43;27.97;;;;;;;;;;4981205;28;20804;-64
2020/12/12 06:01:26;;;;;;;50.37;27.57;;;;;;;;;;4979920;28;20245;-63
2020/12/12 06:04:10;;;;;;;53.33;29.80;;;;;;;;;;4981852;28;20186;-64
2020/12/12 06:06:45;;;;;;;53.23;30.80;;;;;;;;;;4980940;28;20348;-64
2020/12/12 06:09:14;;;;;;;52.60;29.47;;;;;;;;;;4977078;28;20894;-64
2020/12/12 06:11:40;;;;;;;50.47;29.63;;;;;;;;;;4961909;28;20207;-63
2020/12/12 06:14:06;;;;;;;53.07;30.70;;;;;;;;;;4971355;28;20196;-64
2020/12/12 06:16:32;;;;;;;56.57;31.70;;;;;;;;;;4975948;28;20695;-64
2020/12/12 06:19:13;;;;;;;49.07;28.77;;;;;;;;;;4963126;28;20220;-66
2020/12/12 06:21:40;;;;;;;53.73;28.57;;;;;;;;;;4957375;28;20219;-65
2020/12/12 06:24:05;;;;;;;50.73;31.23;;;;;;;;;;4961270;28;20207;-64
2020/12/12 06:26:36;;;;;;;51.57;30.17;;;;;;;;;;4968453;28;20300;-67
2020/12/12 06:29:02;;;;;;;51.07;28.20;;;;;;;;;;4969103;28;20190;-65
2020/12/12 06:31:27;;;;;;;49.57;29.90;;;;;;;;;;4964526;28;20210;-65
2020/12/12 06:33:53;;;;;;;51.60;31.53;;;;;;;;;;4962396;28;20201;-65
2020/12/12 06:36:42;;;;;;;49.47;31.07;;;;;;;;;;4974075;28;20256;-65
2020/12/12 06:39:20;;;;;;;51.10;30.20;;;;;;;;;;4967480;28;20231;-65
2020/12/12 06:41:48;;;;;;;52.07;29.60;;;;;;;;;;4972984;28;20217;-65
2020/12/12 06:44:29;;;;;;;48.63;28.93;;;;;;;;;;4970921;28;20189;-64
2020/12/12 06:46:54;;;;;;;49.30;29.60;;;;;;;;;;4962509;28;20618;-64
2020/12/12 06:49:21;;;;;;;52.17;31.13;;;;;;;;;;4968863;28;20181;-65
2020/12/12 06:51:47;;;;;;;49.43;30.07;;;;;;;;;;4970273;28;20259;-62
2020/12/12 06:54:13;;;;;;;48.10;29.63;;;;;;;;;;4964646;28;20192;-65
2020/12/12 06:56:38;;;;;;;50.40;29.67;;;;;;;;;;4966676;28;20220;-64
2020/12/12 06:59:22;;;;;;;53.37;30.30;;;;;;;;;;4962350;28;20190;-64
2020/12/12 07:01:52;;;;;;;51.73;30.23;;;;;;;;;;4969574;28;20306;-64
2020/12/12 07:04:22;;;;;;;47.80;30.07;;;;;;;;;;4965205;28;20680;-64
2020/12/12 07:06:54;;;;;;;47.93;28.70;;;;;;;;;;4961474;28;20554;-64
2020/12/12 07:09:19;;;;;;;52.93;30.93;;;;;;;;;;4961217;28;20212;-64
2020/12/12 07:11:46;;;;;;;47.30;29.37;;;;;;;;;;4970077;28;21009;-64
2020/12/12 07:14:11;;;;;;;46.13;28.30;;;;;;;;;;4963333;28;20198;-64
2020/12/12 07:16:37;;;;;;;47.40;27.57;;;;;;;;;;4961255;28;21029;-64
2020/12/12 07:19:03;;;;;;;49.20;27.37;;;;;;;;;;4962891;28;20247;-64
2020/12/12 07:21:28;;;;;;;52.90;29.57;;;;;;;;;;4969806;28;20214;-63
2020/12/12 07:23:53;;;;;;;46.83;28.20;;;;;;;;;;4961451;28;20181;-63
2020/12/12 07:26:19;;;;;;;47.27;28.87;;;;;;;;;;4961973;28;20230;-64
2020/12/12 07:28:44;;;;;;;50.43;27.63;;;;;;;;;;4966778;28;20193;-64
2020/12/12 07:31:09;;;;;;;48.00;28.30;;;;;;;;;;4971310;28;20188;-64
2020/12/12 07:33:35;;;;;;;43.63;28.43;;;;;;;;;;4959318;28;20185;-65
2020/12/12 07:36:00;;;;;;;44.40;27.90;;;;;;;;;;4966995;28;20306;-63
2020/12/12 07:38:27;;;;;;;48.80;29.27;;;;;;;;;;4963879;28;20281;-64
2020/12/12 07:40:52;;;;;;;44.03;29.20;;;;;;;;;;4963027;28;20375;-64
2020/12/12 07:43:18;;;;;;;45.93;29.90;;;;;;;;;;4979807;28;20192;-65
2020/12/12 07:48:11;;;;;;;44.80;27.90;;;;;;;;;;4966120;28;20767;-65
2020/12/12 07:50:39;;;;;;;42.93;26.30;;;;;;;;;;4964499;28;20208;-64
2020/12/12 07:53:08;;;;;;;46.20;29.13;;;;;;;;;;4972358;28;20188;-65
2020/12/12 07:55:38;;;;;;;41.23;26.67;;;;;;;;;;4970627;28;20195;-64
2020/12/12 07:58:04;;;;;;;43.07;27.80;;;;;;;;;;4982149;28;20705;-64
2020/12/12 08:00:29;;;;;;;42.10;26.87;;;;;;;;;;4974204;28;20188;-64
2020/12/12 08:02:56;;;;;;;44.20;27.93;;;;;;;;;;4977107;28;20223;-64
2020/12/12 08:05:21;;;;;;;45.43;28.27;;;;;;;;;;4974134;28;20199;-64
2020/12/12 08:07:48;;;;;;;43.50;28.30;;;;;;;;;;4967974;28;20191;-64
2020/12/12 08:10:13;;;;;;;41.67;27.13;;;;;;;;;;4972391;28;20195;-64
2020/12/12 08:12:41;;;;;;;47.23;28.70;;;;;;;;;;4963907;28;20973;-64
2020/12/12 08:15:16;;;;;;;43.90;29.47;;;;;;;;;;4973814;28;20198;-64
2020/12/12 08:17:42;;;;;;;48.70;28.33;;;;;;;;;;4969121;28;20612;-64
2020/12/12 08:20:14;;;;;;;43.07;26.50;;;;;;;;;;4964183;28;20198;-64
2020/12/12 08:22:40;;;;;;;46.37;28.40;;;;;;;;;;4970411;28;20792;-64
2020/12/12 08:25:06;;;;;;;49.90;28.97;;;;;;;;;;4902515;28;77495;-64
2020/12/12 08:27:31;;;;;;;51.57;29.53;;;;;;;;;;4891719;29;20208;-64
2020/12/12 08:29:58;;;;;;;45.80;27.77;;;;;;;;;;4898217;29;20201;-64
2020/12/12 08:32:27;;;;;;;45.43;28.83;;;;;;;;;;4895910;29;20204;-63
2020/12/12 08:35:06;;;;;;;43.87;28.53;;;;;;;;;;4895207;29;20242;-64
2020/12/12 08:37:31;;;;;;;44.43;27.83;;;;;;;;;;4887426;29;20648;-63
2020/12/12 08:39:56;;;;;;;45.97;29.87;;;;;;;;;;4900556;29;20250;-63
2020/12/12 08:42:22;;;;;;;45.00;30.00;;;;;;;;;;4894986;29;20262;-64
2020/12/12 08:44:48;;;;;;;43.37;28.50;;;;;;;;;;4887166;29;20206;-65
2020/12/12 08:47:13;;;;;;;43.57;28.67;;;;;;;;;;4900629;29;20299;-63
2020/12/12 08:49:38;;;;;;;44.93;29.40;;;;;;;;;;4889851;29;20189;-64
2020/12/12 08:52:04;;;;;;;44.10;31.30;;;;;;;;;;4889113;29;20561;-64
2020/12/12 08:54:29;;;;;;;46.57;31.70;;;;;;;;;;4901764;29;20548;-64
2020/12/12 08:57:07;;;;;;;50.33;32.37;;;;;;;;;;4892944;29;20315;-64
2020/12/12 08:59:32;;;;;;;46.77;32.37;;;;;;;;;;4899645;29;20318;-64
2020/12/12 09:01:57;;;;;;;46.37;31.80;;;;;;;;;;4891972;29;20632;-64
2020/12/12 09:04:23;;;;;;;48.87;33.03;;;;;;;;;;4889896;29;20207;-65
2020/12/12 09:06:49;;;;;;;47.73;32.87;;;;;;;;;;4893242;29;20305;-65
2020/12/12 09:09:15;;;;;;;51.63;32.70;;;;;;;;;;4886661;29;20224;-64
2020/12/12 09:11:44;;;;;;;50.03;33.40;;;;;;;;;;4887685;29;20296;-63
2020/12/12 09:14:11;;;;;;;50.20;33.33;;;;;;;;;;4896299;29;20206;-64
2020/12/12 09:16:38;;;;;;;49.60;32.87;;;;;;;;;;4885358;29;20240;-64
2020/12/12 09:19:05;;;;;;;47.73;31.83;;;;;;;;;;4890063;29;20214;-64
2020/12/12 09:21:30;;;;;;;49.47;32.57;;;;;;;;;;4889584;29;20221;-65
2020/12/12 09:23:56;;;;;;;51.53;31.97;;;;;;;;;;4909276;29;20203;-64
2020/12/12 09:26:21;;;;;;;48.20;32.63;;;;;;;;;;4896440;29;20218;-64
2020/12/12 09:28:46;;;;;;;48.07;33.83;;;;;;;;;;4897348;29;20625;-64
2020/12/12 09:31:13;;;;;;;51.20;35.17;;;;;;;;;;4893503;29;20201;-64
2020/12/12 09:33:38;;;;;;;51.30;34.50;;;;;;;;;;4885436;29;20218;-65
2020/12/12 09:36:04;;;;;;;51.20;34.90;;;;;;;;;;4885951;29;20217;-65
2020/12/12 09:38:29;;;;;;;50.33;35.43;;;;;;;;;;4898340;29;20197;-64
2020/12/12 09:40:55;;;;;;;54.70;35.50;;;;;;;;;;4901307;29;20291;-65
2020/12/12 09:43:20;;;;;;;50.93;34.60;;;;;;;;;;4885071;29;20191;-65
2020/12/12 09:45:46;;;;;;;48.17;33.73;;;;;;;;;;4886095;29;20202;-65
2020/12/12 09:48:12;;;;;;;53.07;35.77;;;;;;;;;;4892756;29;20197;-64
2020/12/12 09:50:38;;;;;;;51.27;37.03;;;;;;;;;;4885055;29;20196;-65
2020/12/12 09:53:04;;;;;;;53.27;36.57;;;;;;;;;;4886200;29;20210;-65
2020/12/12 09:55:29;;;;;;;51.80;36.77;;;;;;;;;;4887390;29;21115;-65
2020/12/12 09:57:56;;;;;;;53.17;37.60;;;;;;;;;;4892332;29;21155;-65
2020/12/12 10:00:21;;;;;;;55.47;37.97;;;;;;;;;;4885236;29;20215;-65
2020/12/12 10:02:46;;;;;;;54.90;38.93;;;;;;;;;;4884454;29;20216;-65
2020/12/12 10:05:12;;;;;;;58.07;39.20;;;;;;;;;;4886230;29;20222;-64
2020/12/12 10:07:37;;;;;;;55.50;38.23;;;;;;;;;;4902619;29;20206;-65
2020/12/12 10:10:02;;;;;;;59.57;39.33;;;;;;;;;;4902761;29;20267;-65
2020/12/12 10:12:27;;;;;;;55.77;40.60;;;;;;;;;;4903863;29;20180;-64
2020/12/12 10:14:53;;;;;;;59.90;40.77;;;;;;;;;;4895811;29;20270;-62
2020/12/12 10:17:18;;;;;;;57.80;40.17;;;;;;;;;;4890923;29;20223;-65
2020/12/12 10:19:43;;;;;;;61.50;41.67;;;;;;;;;;4899064;29;20710;-65
2020/12/12 10:22:09;;;;;;;59.33;42.20;;;;;;;;;;4895880;29;20590;-64
2020/12/12 10:24:35;;;;;;;59.00;40.57;;;;;;;;;;4893924;29;20217;-66
2020/12/12 10:27:00;;;;;;;60.20;40.93;;;;;;;;;;4892779;29;20294;-65
2020/12/12 10:29:25;;;;;;;62.13;41.53;;;;;;;;;;4887542;29;20978;-64
2020/12/12 10:31:50;;;;;;;60.27;41.60;;;;;;;;;;4883978;29;20215;-64
2020/12/12 10:34:16;;;;;;;61.33;42.77;;;;;;;;;;4888018;29;20196;-65
2020/12/12 10:36:41;;;;;;;59.93;40.80;;;;;;;;;;4895706;29;20985;-65
2020/12/12 10:39:09;;;;;;;63.40;41.00;;;;;;;;;;4895760;29;20685;-65
2020/12/12 10:41:34;;;;;;;57.83;41.63;;;;;;;;;;4893244;29;20222;-65
2020/12/12 10:43:59;;;;;;;62.50;40.63;;;;;;;;;;4895617;29;20189;-64
2020/12/12 10:46:24;;;;;;;58.33;38.37;;;;;;;;;;4886087;29;20207;-65
2020/12/12 10:48:50;;;;;;;56.30;37.37;;;;;;;;;;4888412;29;20563;-65
2020/12/12 10:51:16;;;;;;;58.63;37.57;;;;;;;;;;4893633;29;20206;-65
2020/12/12 10:53:41;;;;;;;59.00;36.13;;;;;;;;;;4896895;29;20245;-65
2020/12/12 10:56:07;;;;;;;55.07;38.33;;;;;;;;;;4885879;29;20304;-65
2020/12/12 10:58:32;;;;;;;55.83;37.00;;;;;;;;;;4889224;29;20209;-66
2020/12/12 11:00:57;;;;;;;60.40;38.33;;;;;;;;;;4897134;29;20202;-66
2020/12/12 11:03:23;;;;;;;58.40;39.83;;;;;;;;;;4897429;29;20276;-65
2020/12/12 11:05:48;;;;;;;59.00;38.63;;;;;;;;;;4891722;29;20212;-65
2020/12/12 11:08:13;;;;;;;57.20;35.90;;;;;;;;;;4895762;29;20250;-65
2020/12/12 11:10:39;;;;;;;55.53;37.23;;;;;;;;;;4890666;29;20196;-67
2020/12/12 11:13:04;;;;;;;59.90;38.57;;;;;;;;;;4885130;29;20508;-65
2020/12/12 11:15:29;;;;;;;54.53;37.70;;;;;;;;;;4894780;29;20200;-66
2020/12/12 11:17:55;;;;;;;58.73;38.37;;;;;;;;;;4891662;29;20218;-66
2020/12/12 11:20:20;;;;;;;60.23;38.90;;;;;;;;;;4898791;29;20206;-65
2020/12/12 11:22:45;;;;;;;54.63;37.93;;;;;;;;;;4893405;29;20749;-66
2020/12/12 11:25:11;;;;;;;61.13;39.77;;;;;;;;;;4897739;29;20203;-66
2020/12/12 11:27:36;;;;;;;59.00;37.17;;;;;;;;;;4889593;29;20220;-65
2020/12/12 11:30:03;;;;;;;57.80;40.57;;;;;;;;;;4896440;29;20309;-65
2020/12/12 11:32:28;;;;;;;57.43;37.93;;;;;;;;;;4900089;29;20592;-66
2020/12/12 11:48:01;;;;;;;57.43;38.33;;;;;;;;;;4889791;29;20230;-65
2020/12/12 11:50:29;;;;;;;62.57;39.90;;;;;;;;;;4904168;29;20592;-66
2020/12/12 11:52:56;;;;;;;59.20;39.90;;;;;;;;;;4903617;29;20194;-65
2020/12/12 11:55:22;;;;;;;63.10;42.17;;;;;;;;;;4894808;29;20218;-65
2020/12/12 11:57:47;;;;;;;57.97;39.03;;;;;;;;;;4900764;29;20217;-65
2020/12/12 12:00:13;;;;;;;60.20;40.90;;;;;;;;;;4900845;29;21196;-65
2020/12/12 12:02:40;;;;;;;61.90;41.90;;;;;;;;;;4892748;29;20226;-65
2020/12/12 12:05:06;;;;;;;60.67;41.53;;;;;;;;;;4902853;29;20190;-66
2020/12/12 12:07:38;;;;;;;61.90;42.10;;;;;;;;;;4894118;29;20228;-66
2020/12/12 12:10:11;;;;;;;60.80;40.57;;;;;;;;;;4888124;29;20246;-66
2020/12/12 12:12:36;;;;;;;63.30;40.60;;;;;;;;;;4893410;29;20691;-66
2020/12/12 12:15:02;;;;;;;61.10;42.30;;;;;;;;;;4903245;29;20247;-65
2020/12/12 12:17:27;;;;;;;62.17;41.03;;;;;;;;;;4896182;29;20640;-66
2020/12/12 12:19:52;;;;;;;64.33;43.40;;;;;;;;;;4895663;29;20240;-66
2020/12/12 12:22:18;;;;;;;67.83;43.93;;;;;;;;;;4896660;29;20234;-65
2020/12/12 12:24:43;;;;;;;62.47;43.07;;;;;;;;;;4900653;29;20194;-65
2020/12/12 12:27:08;;;;;;;62.27;43.43;;;;;;;;;;4900917;29;20333;-64
2020/12/12 12:29:34;;;;;;;64.63;44.00;;;;;;;;;;4897465;29;20229;-66
2020/12/12 12:31:59;;;;;;;65.13;43.60;;;;;;;;;;4898948;29;20679;-65
2020/12/12 12:34:27;;;;;;;69.73;44.43;;;;;;;;;;4888043;29;20187;-66
2020/12/12 12:36:54;;;;;;;70.93;44.47;;;;;;;;;;4896656;29;20222;-66
2020/12/12 12:39:19;;;;;;;67.47;44.83;;;;;;;;;;4888011;29;20545;-66
2020/12/12 12:41:45;;;;;;;66.67;44.80;;;;;;;;;;4894188;29;20224;-66
2020/12/12 12:44:10;;;;;;;69.23;45.83;;;;;;;;;;4903104;29;21037;-66
2020/12/12 12:46:39;;;;;;;69.57;46.60;;;;;;;;;;4904457;29;20219;-65
2020/12/12 12:49:04;;;;;;;72.30;48.07;;;;;;;;;;4903234;29;20186;-65
2020/12/12 12:51:29;;;;;;;70.47;46.43;;;;;;;;;;4905395;29;20212;-65
2020/12/12 12:53:55;;;;;;;69.10;44.63;;;;;;;;;;4897172;29;20199;-66
2020/12/12 12:56:21;;;;;;;72.43;46.43;;;;;;;;;;4899207;29;20244;-64
2020/12/12 12:58:46;;;;;;;72.63;47.50;;;;;;;;;;4900454;29;20191;-64
2020/12/12 13:01:15;;;;;;;68.47;45.07;;;;;;;;;;4895453;29;20221;-67
2020/12/12 13:03:40;;;;;;;69.87;45.33;;;;;;;;;;4898237;29;20198;-64
2020/12/12 13:06:05;;;;;;;69.10;45.93;;;;;;;;;;4896852;29;20210;-65
2020/12/12 13:08:31;;;;;;;67.53;44.13;;;;;;;;;;4886665;29;20677;-66
2020/12/12 13:10:56;;;;;;;75.57;46.70;;;;;;;;;;4889491;29;20204;-65
2020/12/12 13:13:21;;;;;;;67.33;44.77;;;;;;;;;;4894587;29;20212;-65
2020/12/12 13:15:47;;;;;;;73.40;47.17;;;;;;;;;;4897562;29;20953;-65
2020/12/12 13:18:26;;;;;;;71.60;46.73;;;;;;;;;;4884570;29;20239;-64
2020/12/12 13:21:07;;;;;;;70.80;46.57;;;;;;;;;;4893992;29;20232;-64
2020/12/12 13:23:33;;;;;;;69.43;46.27;;;;;;;;;;4901958;29;20188;-66
2020/12/12 13:25:59;;;;;;;71.37;45.60;;;;;;;;;;4895047;29;20211;-66
2020/12/12 13:31:09;;;;;;;68.70;46.00;;;;;;;;;;4895767;29;20198;-66
2020/12/12 13:33:35;;;;;;;71.67;45.93;;;;;;;;;;4890369;29;20198;-65
2020/12/12 13:36:04;;;;;;;67.23;45.60;;;;;;;;;;4901781;29;20280;-65
2020/12/12 13:38:29;;;;;;;67.17;45.73;;;;;;;;;;4896272;29;20728;-64
2020/12/12 13:40:55;;;;;;;76.60;49.37;;;;;;;;;;4895714;29;20197;-66
2020/12/12 13:43:20;;;;;;;72.70;45.80;;;;;;;;;;4889567;29;20202;-65
2020/12/12 13:45:46;;;;;;;73.03;46.13;;;;;;;;;;4890246;29;20298;-66
2020/12/12 13:48:12;;;;;;;72.47;46.57;;;;;;;;;;4891378;29;20206;-65
2020/12/12 13:50:37;;;;;;;76.30;47.77;;;;;;;;;;4885432;29;20182;-65
2020/12/12 13:53:03;;;;;;;74.53;46.17;;;;;;;;;;4898711;29;20246;-65
2020/12/12 13:55:28;;;;;;;68.10;43.67;;;;;;;;;;4888045;29;20280;-64
2020/12/12 13:57:53;;;;;;;70.40;46.13;;;;;;;;;;4889974;29;20650;-65
2020/12/12 14:00:18;;;;;;;70.23;45.33;;;;;;;;;;4895363;29;20199;-65
2020/12/12 14:02:44;;;;;;;72.10;46.63;;;;;;;;;;4891740;29;20783;-65
2020/12/12 14:05:10;;;;;;;67.47;45.23;;;;;;;;;;4892733;29;20282;-65
2020/12/12 14:07:39;;;;;;;71.63;45.97;;;;;;;;;;4891461;29;20216;-67
2020/12/12 14:23:30;;;;;;;68.63;43.70;;;;;;;;;;4886740;29;20188;-65
2020/12/12 14:28:37;;;;;;;70.80;44.10;;;;;;;;;;4889815;29;20182;-65
2020/12/12 14:31:02;;;;;;;70.63;45.70;;;;;;;;;;4913648;29;20899;-65
2020/12/12 14:33:28;;;;;;;67.40;43.80;;;;;;;;;;4897105;29;20203;-65
2020/12/12 14:35:53;;;;;;;64.53;41.73;;;;;;;;;;4901724;29;20198;-65
2020/12/12 14:38:19;;;;;;;65.73;40.93;;;;;;;;;;4892038;29;20195;-65
2020/12/12 14:40:44;;;;;;;65.07;40.00;;;;;;;;;;4896392;29;20232;-64
2020/12/12 14:43:10;;;;;;;60.23;38.53;;;;;;;;;;4885773;29;20220;-64
2020/12/12 14:45:36;;;;;;;63.47;39.37;;;;;;;;;;4889957;29;20187;-64